createdAt,value
2023-01-28T00:01:18.473Z,11.00
2023-01-28T00:03:51.558Z,11.60
2023-01-28T00:06:20.514Z,12.70
2023-01-28T00:08:49.551Z,13.10
2023-01-28T00:11:17.685Z,15.30
2023-01-28T00:13:45.862Z,14.60
2023-01-28T00:16:13.966Z,17.00
2023-01-28T00:18:42.225Z,11.10
2023-01-28T00:21:12.893Z,14.30
2023-01-28T00:23:43.171Z,13.00
2023-01-28T00:26:14.606Z,12.00
2023-01-28T00:28:44.543Z,11.30
2023-01-28T00:31:17.354Z,10.80
2023-01-28T00:33:48.533Z,11.00
2023-01-28T00:36:18.056Z,9.20
2023-01-28T00:38:54.223Z,16.00
2023-01-28T00:41:25.184Z,11.70
2023-01-28T00:43:54.385Z,10.50
2023-01-28T00:46:23.759Z,9.20
2023-01-28T00:48:52.377Z,9.50
2023-01-28T00:51:21.312Z,10.80
2023-01-28T00:53:50.882Z,10.10
2023-01-28T00:56:20.177Z,10.80
2023-01-28T00:58:48.751Z,12.10
2023-01-28T01:01:18.585Z,10.20
2023-01-28T01:03:47.958Z,10.70
2023-01-28T01:06:16.805Z,10.70
2023-01-28T01:08:50.294Z,10.90
2023-01-28T01:11:19.482Z,9.20
2023-01-28T01:13:56.394Z,12.70
2023-01-28T01:16:30.042Z,12.60
2023-01-28T01:18:59.568Z,12.10
2023-01-28T01:21:29.801Z,9.70
2023-01-28T01:23:58.629Z,9.80
2023-01-28T01:26:30.236Z,8.90
2023-01-28T01:28:59.025Z,9.20
2023-01-28T01:31:27.441Z,8.30
2023-01-28T01:33:55.898Z,8.70
2023-01-28T01:36:24.031Z,9.20
2023-01-28T01:38:56.475Z,10.80
2023-01-28T01:41:30.891Z,8.80
2023-01-28T01:44:00.795Z,8.10
2023-01-28T01:46:40.328Z,6.90
2023-01-28T01:49:25.227Z,8.50
2023-01-28T01:52:09.478Z,8.90
2023-01-28T01:54:39.906Z,8.90
2023-01-28T01:57:14.091Z,9.40
2023-01-28T01:59:44.218Z,11.00
2023-01-28T02:02:13.397Z,9.00
2023-01-28T02:04:44.922Z,9.70
2023-01-28T02:07:20.240Z,9.60
2023-01-28T02:09:48.484Z,9.60
2023-01-28T02:12:22.190Z,9.00
2023-01-28T02:15:00.307Z,10.20
2023-01-28T02:17:29.293Z,10.30
2023-01-28T02:20:18.666Z,9.70
2023-01-28T02:22:56.251Z,11.30
2023-01-28T02:25:43.590Z,10.40
2023-01-28T02:28:30.017Z,9.60
2023-01-28T02:31:20.807Z,10.30
2023-01-28T02:34:18.782Z,10.20
2023-01-28T02:37:08.665Z,9.50
2023-01-28T02:39:43.313Z,10.30
2023-01-28T02:42:21.906Z,11.80
2023-01-28T02:44:50.046Z,11.50
2023-01-28T02:47:37.920Z,12.40
2023-01-28T02:50:12.241Z,11.10
2023-01-28T02:53:18.520Z,10.70
2023-01-28T02:56:02.121Z,10.90
2023-01-28T02:59:22.587Z,9.90
2023-01-28T03:01:58.602Z,11.10
2023-01-28T03:04:38.759Z,14.10
2023-01-28T03:07:10.127Z,29.70
2023-01-28T03:09:41.079Z,12.70
2023-01-28T03:12:33.104Z,9.80
2023-01-28T03:15:24.533Z,9.40
2023-01-28T03:18:19.727Z,9.90
2023-01-28T03:21:16.287Z,9.00
2023-01-28T03:24:40.354Z,10.10
2023-01-28T03:27:51.499Z,10.60
2023-01-28T03:31:00.876Z,9.80
2023-01-28T03:33:59.880Z,11.00
2023-01-28T03:36:48.566Z,9.50
2023-01-28T03:39:36.494Z,9.00
2023-01-28T03:42:10.832Z,8.90
2023-01-28T03:44:53.076Z,9.70
2023-01-28T03:47:25.307Z,9.70
2023-01-28T03:49:55.399Z,9.40
2023-01-28T03:52:26.739Z,9.90
2023-01-28T03:57:28.429Z,9.10
2023-01-28T03:59:56.801Z,8.30
2023-01-28T04:02:27.178Z,9.10
2023-01-28T04:04:56.053Z,8.50
2023-01-28T04:07:24.188Z,7.70
2023-01-28T04:10:10.559Z,8.80
2023-01-28T04:12:50.122Z,7.60
2023-01-28T04:15:20.055Z,7.90
2023-01-28T04:17:50.117Z,8.40
2023-01-28T04:20:27.360Z,9.00
2023-01-28T04:22:56.766Z,7.50
2023-01-28T04:25:25.494Z,8.60
2023-01-28T04:27:54.254Z,7.50
2023-01-28T04:30:24.843Z,8.30
2023-01-28T04:33:08.519Z,8.50
2023-01-28T04:35:43.758Z,9.30
2023-01-28T04:38:50.746Z,7.90
2023-01-28T04:41:41.856Z,9.60
2023-01-28T04:44:20.678Z,10.50
2023-01-28T04:50:27.179Z,8.90
2023-01-28T04:53:21.833Z,10.10
2023-01-28T04:55:58.591Z,8.60
2023-01-28T04:58:27.854Z,10.70
2023-01-28T05:01:00.973Z,10.70
2023-01-28T05:03:29.552Z,9.80
2023-01-28T05:05:57.928Z,10.60
2023-01-28T05:08:46.677Z,10.10
2023-01-28T05:11:16.586Z,11.00
2023-01-28T05:13:46.455Z,10.80
2023-01-28T05:16:15.308Z,11.40
2023-01-28T05:18:44.896Z,10.40
2023-01-28T05:21:16.475Z,9.20
2023-01-28T05:23:45.147Z,8.40
2023-01-28T05:26:13.590Z,9.10
2023-01-28T05:28:41.830Z,9.80
2023-01-28T05:31:11.109Z,7.90
2023-01-28T05:33:39.821Z,9.20
2023-01-28T05:36:10.777Z,9.30
2023-01-28T05:38:41.893Z,10.60
2023-01-28T05:41:10.321Z,8.50
2023-01-28T05:43:38.962Z,9.60
2023-01-28T05:46:22.894Z,9.10
2023-01-28T05:49:12.541Z,8.80
2023-01-28T05:51:56.669Z,8.10
2023-01-28T05:54:25.532Z,9.40
2023-01-28T05:56:55.125Z,9.90
2023-01-28T05:59:23.748Z,11.30
2023-01-28T06:01:54.447Z,9.20
2023-01-28T06:04:22.791Z,10.30
2023-01-28T06:06:51.517Z,13.50
2023-01-28T06:09:19.793Z,16.50
2023-01-28T06:11:48.320Z,16.60
2023-01-28T06:14:16.758Z,23.50
2023-01-28T06:17:03.589Z,20.10
2023-01-28T06:19:39.940Z,21.50
2023-01-28T06:22:09.264Z,17.90
2023-01-28T06:24:37.630Z,19.20
2023-01-28T06:27:07.541Z,16.90
2023-01-28T06:29:35.766Z,15.10
2023-01-28T06:32:04.545Z,14.80
2023-01-28T06:34:33.310Z,12.50
2023-01-28T06:37:01.586Z,23.50
2023-01-28T06:39:32.067Z,29.60
2023-01-28T06:42:00.998Z,22.00
2023-01-28T06:44:29.172Z,30.40
2023-01-28T06:46:57.554Z,33.50
2023-01-28T06:49:25.937Z,26.30
2023-01-28T06:51:54.115Z,36.60
2023-01-28T06:54:22.629Z,24.20
2023-01-28T06:56:50.978Z,30.60
2023-01-28T06:59:19.149Z,26.80
2023-01-28T07:01:47.683Z,17.30
2023-01-28T07:04:15.826Z,15.80
2023-01-28T07:06:44.040Z,19.10
2023-01-28T07:09:11.998Z,22.10
2023-01-28T07:11:40.334Z,20.30
2023-01-28T07:14:08.859Z,24.80
2023-01-28T07:16:36.892Z,21.70
2023-01-28T07:19:05.096Z,19.80
2023-01-28T07:21:33.354Z,19.60
2023-01-28T07:24:01.680Z,23.80
2023-01-28T07:26:29.972Z,44.20
2023-01-28T07:28:58.185Z,43.80
2023-01-28T07:31:26.478Z,41.30
2023-01-28T07:33:55.161Z,21.10
2023-01-28T07:36:23.223Z,16.70
2023-01-28T07:38:51.527Z,15.00
2023-01-28T07:41:19.675Z,17.20
2023-01-28T07:43:48.137Z,15.90
2023-01-28T07:46:16.535Z,17.20
2023-01-28T07:48:45.121Z,21.20
2023-01-28T07:51:13.914Z,23.40
2023-01-28T07:53:41.971Z,17.10
2023-01-28T07:56:10.216Z,17.00
2023-01-28T07:58:39.262Z,17.10
2023-01-28T08:01:07.634Z,15.60
2023-01-28T08:03:36.264Z,15.60
2023-01-28T08:06:05.320Z,16.20
2023-01-28T08:08:33.601Z,13.80
2023-01-28T08:11:08.983Z,14.60
2023-01-28T08:13:37.327Z,14.90
2023-01-28T08:16:06.555Z,36.10
2023-01-28T08:18:34.826Z,22.50
2023-01-28T08:21:05.293Z,21.40
2023-01-28T08:23:34.692Z,25.30
2023-01-28T08:26:02.829Z,27.20
2023-01-28T08:28:31.293Z,27.10
2023-01-28T08:31:01.188Z,22.10
2023-01-28T08:33:29.796Z,21.90
2023-01-28T08:35:58.220Z,19.20
2023-01-28T08:38:26.350Z,16.30
2023-01-28T08:40:57.091Z,17.30
2023-01-28T08:43:26.191Z,17.60
2023-01-28T08:45:54.276Z,16.90
2023-01-28T08:48:22.535Z,17.50
2023-01-28T08:50:51.138Z,20.40
2023-01-28T08:53:20.583Z,18.00
2023-01-28T08:55:49.039Z,27.40
2023-01-28T08:58:19.028Z,28.20
2023-01-28T09:00:48.923Z,21.70
2023-01-28T09:03:18.286Z,29.10
2023-01-28T09:05:46.526Z,29.40
2023-01-28T09:08:15.523Z,24.30
2023-01-28T09:10:43.822Z,25.90
2023-01-28T09:13:14.938Z,25.20
2023-01-28T09:15:44.046Z,24.30
2023-01-28T09:18:12.440Z,26.20
2023-01-28T09:20:41.320Z,22.10
2023-01-28T09:23:10.213Z,14.90
2023-01-28T09:25:38.806Z,12.50
2023-01-28T09:28:07.871Z,12.50
2023-01-28T09:30:37.810Z,11.00
2023-01-28T09:33:07.524Z,15.30
2023-01-28T09:35:37.006Z,16.90
2023-01-28T09:38:06.029Z,13.20
2023-01-28T09:40:42.388Z,13.20
2023-01-28T09:43:13.738Z,11.50
2023-01-28T09:45:47.366Z,11.50
2023-01-28T09:48:24.701Z,14.90
2023-01-28T09:50:55.075Z,16.20
2023-01-28T09:53:28.866Z,14.70
2023-01-28T09:56:05.137Z,18.60
2023-01-28T09:58:33.330Z,35.20
2023-01-28T10:01:23.113Z,12.70
2023-01-28T10:04:23.144Z,10.80
2023-01-28T10:06:54.365Z,11.70
2023-01-28T10:09:31.893Z,11.00
2023-01-28T10:12:09.152Z,13.50
2023-01-28T10:15:19.630Z,14.90
2023-01-28T10:17:51.552Z,21.90
2023-01-28T10:20:33.374Z,9.00
2023-01-28T10:23:28.993Z,8.30
2023-01-28T10:26:01.740Z,11.40
2023-01-28T10:28:30.773Z,9.20
2023-01-28T10:30:59.080Z,8.10
2023-01-28T10:33:39.145Z,11.00
2023-01-28T10:36:09.611Z,9.10
2023-01-28T10:38:37.815Z,10.90
2023-01-28T10:41:08.865Z,7.80
2023-01-28T10:43:41.642Z,9.00
2023-01-28T10:46:19.241Z,9.20
2023-01-28T10:49:08.608Z,9.40
2023-01-28T10:51:39.549Z,7.60
2023-01-28T10:54:37.258Z,6.80
2023-01-28T10:57:13.255Z,8.10
2023-01-28T10:59:42.359Z,9.10
2023-01-28T11:02:32.840Z,7.50
2023-01-28T11:05:17.487Z,9.70
2023-01-28T11:07:45.613Z,9.10
2023-01-28T11:10:27.556Z,9.70
2023-01-28T11:13:01.306Z,9.10
2023-01-28T11:15:30.209Z,14.40
2023-01-28T11:18:06.509Z,13.40
2023-01-28T11:20:41.367Z,12.10
2023-01-28T11:23:46.456Z,16.10
2023-01-28T11:26:27.589Z,9.70
2023-01-28T11:28:56.734Z,9.50
2023-01-28T11:31:26.827Z,12.40
2023-01-28T11:33:58.377Z,11.70
2023-01-28T11:36:29.237Z,14.80
2023-01-28T11:39:02.033Z,15.00
2023-01-28T11:41:33.214Z,17.20
2023-01-28T11:44:17.516Z,15.20
2023-01-28T11:46:51.401Z,11.90
2023-01-28T11:49:22.683Z,12.30
2023-01-28T11:51:59.358Z,13.80
2023-01-28T11:54:45.454Z,15.10
2023-01-28T11:57:53.696Z,13.80
2023-01-28T12:00:30.127Z,13.20
2023-01-28T12:03:20.979Z,14.10
2023-01-28T12:05:55.477Z,14.10
2023-01-28T12:08:28.768Z,14.30
2023-01-28T12:11:48.866Z,14.50
2023-01-28T12:14:19.973Z,15.40
2023-01-28T12:16:48.081Z,13.30
2023-01-28T12:19:31.417Z,13.90
2023-01-28T12:22:19.786Z,11.80
2023-01-28T12:25:15.786Z,9.50
2023-01-28T12:28:08.600Z,11.90
2023-01-28T12:30:49.630Z,8.90
2023-01-28T12:33:39.817Z,10.30
2023-01-28T12:36:29.592Z,10.30
2023-01-28T12:39:41.252Z,9.40
2023-01-28T12:42:16.059Z,10.70
2023-01-28T12:44:49.382Z,10.10
2023-01-28T12:47:24.365Z,8.50
2023-01-28T12:50:03.906Z,7.70
2023-01-28T12:52:42.524Z,8.20
2023-01-28T12:55:41.568Z,11.00
2023-01-28T12:58:20.187Z,21.80
2023-01-28T13:01:12.586Z,11.70
2023-01-28T13:03:49.769Z,12.20
2023-01-28T13:06:36.170Z,9.60
2023-01-28T13:09:16.941Z,8.40
2023-01-28T13:11:48.338Z,7.90
2023-01-28T13:14:18.414Z,16.60
2023-01-28T13:16:46.478Z,14.60
2023-01-28T13:19:20.536Z,15.40
2023-01-28T13:21:50.175Z,10.90
2023-01-28T13:24:31.735Z,12.20
2023-01-28T13:27:12.891Z,9.50
2023-01-28T13:29:41.157Z,10.80
2023-01-28T13:32:54.908Z,9.50
2023-01-28T13:35:34.364Z,16.90
2023-01-28T13:38:29.988Z,12.90
2023-01-28T13:41:01.619Z,12.90
2023-01-28T13:43:32.981Z,10.00
2023-01-28T13:46:05.493Z,11.60
2023-01-28T13:48:44.579Z,11.70
2023-01-28T13:51:20.845Z,10.90
2023-01-28T13:53:58.954Z,11.00
2023-01-28T13:56:32.245Z,18.60
2023-01-28T13:59:45.871Z,10.90
2023-01-28T14:02:39.771Z,76.60
2023-01-28T14:08:10.026Z,11.00
2023-01-28T14:11:00.090Z,13.10
2023-01-28T14:13:59.494Z,11.70
2023-01-28T14:16:36.121Z,10.70
2023-01-28T14:19:06.289Z,11.90
2023-01-28T14:21:36.248Z,13.00
2023-01-28T14:24:05.689Z,11.70
2023-01-28T14:27:21.835Z,16.90
2023-01-28T14:29:56.143Z,9.30
2023-01-28T14:32:30.845Z,9.40
2023-01-28T14:35:06.051Z,8.50
2023-01-28T14:37:35.133Z,8.90
2023-01-28T14:40:13.419Z,8.90
2023-01-28T14:47:52.916Z,8.90
2023-01-28T14:50:40.054Z,13.90
2023-01-28T14:53:23.601Z,19.20
2023-01-28T14:56:05.343Z,10.40
2023-01-28T14:58:39.620Z,10.40
2023-01-28T15:01:21.062Z,18.40
2023-01-28T15:03:49.250Z,17.70
2023-01-28T15:06:21.759Z,19.50
2023-01-28T15:08:51.648Z,14.50
2023-01-28T15:11:24.946Z,16.60
2023-01-28T15:16:31.698Z,11.20
2023-01-28T15:19:01.993Z,19.80
2023-01-28T15:21:30.967Z,12.20
2023-01-28T15:24:01.299Z,14.80
2023-01-28T15:26:33.114Z,19.30
2023-01-28T15:29:01.317Z,14.70
2023-01-28T15:31:31.116Z,15.20
2023-01-28T15:34:03.911Z,16.60
2023-01-28T15:36:32.403Z,16.00
2023-01-28T15:39:00.430Z,18.10
2023-01-28T15:41:34.083Z,17.00
2023-01-28T15:46:32.787Z,16.50
2023-01-28T15:49:04.646Z,19.60
2023-01-28T15:51:34.359Z,17.10
2023-01-28T15:54:09.145Z,14.70
2023-01-28T15:56:37.565Z,15.90
2023-01-28T15:59:33.139Z,12.50
2023-01-28T16:02:25.423Z,13.60
2023-01-28T16:04:58.057Z,14.60
2023-01-28T16:07:28.844Z,14.00
2023-01-28T16:09:59.624Z,13.60
2023-01-28T16:12:28.674Z,13.20
2023-01-28T16:15:02.635Z,12.50
2023-01-28T16:17:38.652Z,14.20
2023-01-28T16:20:20.563Z,17.40
2023-01-28T16:22:49.220Z,19.70
2023-01-28T16:25:33.997Z,21.50
2023-01-28T16:28:03.846Z,21.80
2023-01-28T16:30:32.004Z,18.40
2023-01-28T16:33:00.974Z,17.00
2023-01-28T16:35:47.317Z,19.30
2023-01-28T16:38:19.356Z,16.90
2023-01-28T16:40:48.074Z,15.60
2023-01-28T16:43:17.725Z,13.70
2023-01-28T16:45:46.541Z,12.60
2023-01-28T16:48:14.715Z,12.40
2023-01-28T16:50:43.478Z,13.40
2023-01-28T16:53:21.537Z,11.60
2023-01-28T16:55:51.243Z,16.30
2023-01-28T16:58:24.230Z,19.40
2023-01-28T17:00:53.379Z,13.50
2023-01-28T17:03:22.319Z,14.50
2023-01-28T17:05:50.866Z,11.70
2023-01-28T17:08:19.019Z,12.50
2023-01-28T17:10:53.213Z,11.80
2023-01-28T17:13:21.864Z,12.80
2023-01-28T17:15:50.157Z,15.60
2023-01-28T17:18:19.037Z,16.60
2023-01-28T17:20:47.206Z,31.80
2023-01-28T17:23:17.064Z,37.70
2023-01-28T17:25:45.407Z,45.40
2023-01-28T17:28:13.731Z,68.30
2023-01-28T17:30:42.741Z,61.70
2023-01-28T17:33:11.123Z,22.80
2023-01-28T17:35:39.194Z,18.40
2023-01-28T17:38:07.494Z,18.10
2023-01-28T17:40:35.912Z,24.90
2023-01-28T17:43:04.384Z,27.70
2023-01-28T17:45:32.787Z,37.90
2023-01-28T17:48:01.168Z,44.40
2023-01-28T17:50:29.528Z,52.20
2023-01-28T17:52:58.218Z,43.40
2023-01-28T17:55:26.895Z,19.50
2023-01-28T17:57:55.320Z,14.70
2023-01-28T18:00:24.170Z,22.50
2023-01-28T18:02:53.067Z,35.80
2023-01-28T18:05:22.057Z,37.10
2023-01-28T18:07:50.646Z,30.40
2023-01-28T18:10:19.439Z,28.70
2023-01-28T18:12:47.530Z,27.30
2023-01-28T18:15:16.136Z,36.30
2023-01-28T18:17:44.761Z,31.70
2023-01-28T18:20:13.285Z,30.20
2023-01-28T18:22:41.508Z,22.40
2023-01-28T18:25:19.332Z,26.80
2023-01-28T18:27:47.925Z,26.80
2023-01-28T18:30:22.064Z,31.40
2023-01-28T18:32:50.668Z,28.70
2023-01-28T18:35:19.257Z,24.20
2023-01-28T18:37:47.806Z,27.20
2023-01-28T18:40:16.137Z,31.80
2023-01-28T18:42:44.367Z,33.70
2023-01-28T18:45:12.705Z,27.60
2023-01-28T18:47:41.627Z,28.40
2023-01-28T18:50:10.421Z,33.70
2023-01-28T18:52:38.721Z,41.30
2023-01-28T18:55:07.901Z,38.50
2023-01-28T18:57:36.173Z,39.80
2023-01-28T19:00:05.635Z,42.30
2023-01-28T19:02:34.134Z,50.00
2023-01-28T19:05:02.441Z,127.60
2023-01-28T19:07:31.641Z,60.60
2023-01-28T19:09:59.824Z,44.10
2023-01-28T19:12:27.818Z,70.90
2023-01-28T19:14:57.290Z,74.20
2023-01-28T19:17:25.705Z,31.30
2023-01-28T19:19:53.955Z,36.30
2023-01-28T19:22:22.438Z,40.60
2023-01-28T19:24:50.733Z,35.60
2023-01-28T19:27:19.074Z,32.00
2023-01-28T19:29:47.200Z,26.80
2023-01-28T19:32:15.252Z,42.50
2023-01-28T19:34:43.420Z,36.30
2023-01-28T19:37:14.380Z,25.20
2023-01-28T19:39:42.638Z,25.30
2023-01-28T19:42:10.972Z,23.20
2023-01-28T19:44:39.005Z,26.10
2023-01-28T19:47:07.274Z,23.80
2023-01-28T19:49:35.564Z,33.30
2023-01-28T19:52:03.925Z,26.30
2023-01-28T19:54:32.143Z,27.20
2023-01-28T19:57:00.297Z,26.90
2023-01-28T19:59:28.633Z,24.20
2023-01-28T20:01:56.802Z,22.60
2023-01-28T20:04:25.131Z,19.70
2023-01-28T20:06:53.448Z,36.80
2023-01-28T20:09:22.087Z,26.10
2023-01-28T20:11:50.456Z,23.40
2023-01-28T20:14:19.969Z,30.60
2023-01-28T20:16:49.267Z,29.00
2023-01-28T20:19:19.233Z,22.70
2023-01-28T20:21:50.747Z,22.80
2023-01-28T20:24:18.974Z,17.50
2023-01-28T20:26:47.251Z,17.30
2023-01-28T20:29:18.515Z,12.70
2023-01-28T20:31:54.174Z,20.10
2023-01-28T20:34:29.537Z,17.80
2023-01-28T20:36:57.924Z,13.80
2023-01-28T20:39:26.209Z,13.80
2023-01-28T20:41:54.681Z,14.30
2023-01-28T20:44:23.070Z,12.70
2023-01-28T20:46:51.133Z,13.60
2023-01-28T20:49:19.310Z,14.70
2023-01-28T20:51:47.601Z,13.90
2023-01-28T20:54:18.020Z,13.50
2023-01-28T20:56:46.205Z,17.20
2023-01-28T20:59:14.979Z,16.00
2023-01-28T21:01:43.543Z,17.20
2023-01-28T21:04:12.475Z,18.60
2023-01-28T21:06:40.824Z,19.90
2023-01-28T21:09:09.046Z,16.30
2023-01-28T21:11:37.300Z,16.20
2023-01-28T21:14:05.575Z,15.10
2023-01-28T21:16:33.656Z,15.60
2023-01-28T21:19:01.768Z,17.10
2023-01-28T21:21:30.217Z,16.70
2023-01-28T21:24:01.830Z,15.30
2023-01-28T21:26:30.151Z,16.50
2023-01-28T21:28:58.263Z,16.70
2023-01-28T21:31:27.189Z,13.10
2023-01-28T21:33:57.877Z,13.00
2023-01-28T21:36:27.075Z,12.70
2023-01-28T21:38:57.693Z,12.20
2023-01-28T21:41:27.183Z,12.80
2023-01-28T21:43:57.363Z,18.50
2023-01-28T21:46:28.309Z,14.90
2023-01-28T21:48:58.207Z,18.90
2023-01-28T21:51:36.558Z,14.10
2023-01-28T21:54:17.568Z,17.50
2023-01-28T21:56:50.386Z,17.40
2023-01-28T21:59:28.992Z,17.60
2023-01-28T22:02:02.935Z,18.00
2023-01-28T22:04:36.879Z,18.50
2023-01-28T22:07:08.262Z,21.40
2023-01-28T22:09:38.756Z,19.90
2023-01-28T22:12:08.603Z,18.60
2023-01-28T22:14:38.795Z,20.40
2023-01-28T22:17:09.394Z,23.40
2023-01-28T22:19:39.208Z,24.20
2023-01-28T22:22:07.443Z,26.10
2023-01-28T22:24:35.641Z,23.70
2023-01-28T22:27:04.299Z,16.20
2023-01-28T22:29:32.544Z,16.60
2023-01-28T22:32:04.279Z,18.50
2023-01-28T22:34:32.810Z,17.80
2023-01-28T22:37:01.090Z,17.20
2023-01-28T22:39:29.275Z,18.10
2023-01-28T22:41:57.745Z,19.00
2023-01-28T22:44:27.064Z,22.40
2023-01-28T22:46:55.544Z,21.10
2023-01-28T22:49:25.646Z,28.10
2023-01-28T22:52:07.849Z,21.80
2023-01-28T22:54:36.105Z,21.30
2023-01-28T22:57:04.206Z,21.00
2023-01-28T22:59:32.559Z,22.90
2023-01-28T23:02:00.875Z,18.80
2023-01-28T23:04:29.141Z,20.00
2023-01-28T23:06:57.314Z,16.90
2023-01-28T23:09:25.708Z,18.90
2023-01-28T23:11:53.915Z,21.20
2023-01-28T23:14:41.096Z,27.20
2023-01-28T23:17:28.769Z,23.10
2023-01-28T23:20:16.092Z,19.60
2023-01-28T23:23:02.885Z,15.50
2023-01-28T23:25:31.248Z,13.60
2023-01-28T23:27:59.307Z,11.60
2023-01-28T23:30:28.132Z,14.30
2023-01-28T23:32:58.434Z,17.50
2023-01-28T23:35:26.632Z,14.10
2023-01-28T23:37:55.609Z,12.30
2023-01-28T23:40:24.718Z,15.20
2023-01-28T23:42:54.547Z,16.70
2023-01-28T23:45:22.699Z,15.40
2023-01-28T23:47:52.497Z,19.00
2023-01-28T23:50:20.993Z,22.80
2023-01-28T23:52:49.244Z,22.50
2023-01-28T23:55:17.609Z,22.40
2023-01-28T23:57:45.920Z,32.40
